Portada
METAR-TAF:

METAR-TAF

Aeroports :

Amman-Queen Alia, Jordània

latitud: 31-40N, longitud: 035-58E, altitud: 721 m

Observació

L'informe es va fer fa 6 minuts, a les 02:00 UTC
Vent calma
Temperatura 17°C
Humitat 72%
Pressió 1014 hPa
Visibilitat: 7000 m

METAR: OJAI 200200Z 00000KT 7000 NSC 17/12 Q1014 NOSIG

Hora: 05:06 (02:06 UTC)

Pronòstic

L'informe es va fer fa 3 hores i 39 minuts, a les 22:27 UTC
Pronòstic vàlid del 20 a les 00 UTC al 21 a les 06 UTC
Vent 8 kt del Oest/Nord-Oest
Visibilitat: 6000 m
Temporalment
l' 20 a les 03 UTC al 20 a les 06 UTC
Visibilitat: 4000 m
boirina

TAF: OJAI 192227Z 2000/2106 29008KT 6000 NSC TEMPO 2003/2006 4000 BR

Observacions i pronòstics meteorològics de més de 4000 aeroports (METAR i TAF).

Les estacions disponibles són els punts grocs i vermells al mapa.

Posi el ratolí al punt desitjat per veure el nom de l'estació.

Feu clic per veure les observacions i els pronòstics meteorològics.

Per canviar el mapa: feu clic els botons verds amb una creu de color negre per apropar; al botó verd amb un guió per allunyar la imatge; o en les fletxes verdes per a mapes adjacents.


METAR-TAF: